createdAt,value
2017-12-25T08:28:36.278Z,38.40
2017-12-25T08:31:06.486Z,38.50
2017-12-25T08:33:35.643Z,38.00
2017-12-25T08:36:03.604Z,38.00
2017-12-25T08:38:31.434Z,37.80
2017-12-25T08:40:59.311Z,37.70
2017-12-25T08:43:27.132Z,39.30
2017-12-25T08:45:54.994Z,39.20
2017-12-25T08:48:37.521Z,39.50
2017-12-25T08:51:06.808Z,40.00
2017-12-25T08:53:36.029Z,40.30
2017-12-25T08:56:12.297Z,39.90
2017-12-25T08:58:40.163Z,40.10
2017-12-25T09:01:09.226Z,40.50
2017-12-25T09:03:37.130Z,40.10
2017-12-25T09:06:05.242Z,40.00
2017-12-25T09:08:33.186Z,40.40
2017-12-25T09:11:02.564Z,41.00
2017-12-25T09:13:31.432Z,40.30
2017-12-25T09:15:59.479Z,40.30
2017-12-25T09:18:27.612Z,40.30
2017-12-25T09:20:56.607Z,40.50
2017-12-25T09:23:24.531Z,40.50
2017-12-25T09:25:53.503Z,40.60
2017-12-25T09:28:21.393Z,40.80
2017-12-25T09:30:51.150Z,41.20
2017-12-25T09:33:19.043Z,40.90
2017-12-25T09:35:48.648Z,41.50
2017-12-25T09:38:17.417Z,41.60
2017-12-25T09:40:45.419Z,41.40
2017-12-25T09:43:14.136Z,41.80
2017-12-25T09:45:41.946Z,41.90
2017-12-25T09:48:10.528Z,42.10
2017-12-25T09:50:38.618Z,42.10
2017-12-25T09:53:07.272Z,41.80
2017-12-25T09:55:35.133Z,41.80
2017-12-25T09:58:02.988Z,42.40
2017-12-25T10:00:30.918Z,42.00
2017-12-25T10:02:59.625Z,42.80
2017-12-25T10:05:27.470Z,42.70
2017-12-25T10:07:55.439Z,42.60
2017-12-25T10:10:24.232Z,42.80
2017-12-25T10:12:53.348Z,42.70
2017-12-25T10:15:22.771Z,43.10
2017-12-25T10:17:51.692Z,43.00
2017-12-25T10:20:21.182Z,43.00
2017-12-25T10:22:51.486Z,43.00
2017-12-25T10:25:22.085Z,43.00
2017-12-25T10:27:51.165Z,43.00
2017-12-25T10:30:20.436Z,43.20
2017-12-25T10:32:49.536Z,43.10
2017-12-25T10:35:17.890Z,42.90
2017-12-25T10:37:46.098Z,34.00
2017-12-25T10:40:15.050Z,43.40
2017-12-25T10:42:43.810Z,33.50
2017-12-25T10:45:11.998Z,33.30
2017-12-25T10:47:39.977Z,44.50
2017-12-25T10:50:07.793Z,44.10
2017-12-25T10:52:35.735Z,42.70
2017-12-25T10:55:03.583Z,42.20
2017-12-25T10:57:31.503Z,42.30
2017-12-25T10:59:59.368Z,41.70
2017-12-25T11:02:27.197Z,39.80
2017-12-25T11:04:55.076Z,39.70
2017-12-25T11:07:23.686Z,39.20
2017-12-25T11:09:51.486Z,39.10
2017-12-25T11:12:19.316Z,40.50
2017-12-25T11:14:48.559Z,40.60
2017-12-25T11:17:17.435Z,39.50
2017-12-25T11:19:45.368Z,38.80
2017-12-25T11:22:14.016Z,40.90
2017-12-25T11:24:41.974Z,40.90
2017-12-25T11:27:09.744Z,38.50
2017-12-25T11:29:37.567Z,41.60
2017-12-25T11:32:05.353Z,39.90
2017-12-25T11:34:33.184Z,38.80
2017-12-25T11:37:01.088Z,41.90
2017-12-25T11:39:28.874Z,40.60
2017-12-25T11:41:56.658Z,40.60
2017-12-25T11:44:24.434Z,40.60
2017-12-25T11:46:52.250Z,39.80
2017-12-25T11:49:20.112Z,39.10
2017-12-25T11:51:47.889Z,32.00
2017-12-25T11:54:15.765Z,41.70
2017-12-25T11:56:43.636Z,40.20
2017-12-25T11:59:11.457Z,40.80
2017-12-25T12:01:39.227Z,34.00
2017-12-25T12:04:07.070Z,40.30
2017-12-25T12:06:34.883Z,36.60
2017-12-25T12:09:02.704Z,39.60
2017-12-25T12:11:30.541Z,39.40
2017-12-25T12:13:58.410Z,35.60
2017-12-25T12:16:26.285Z,38.50
2017-12-25T12:18:54.612Z,38.90
2017-12-25T12:21:22.417Z,38.80
2017-12-25T12:23:50.175Z,38.60
2017-12-25T12:26:17.973Z,33.10
2017-12-25T12:28:45.830Z,38.20
2017-12-25T12:31:14.486Z,38.30
2017-12-25T12:33:42.240Z,38.20
2017-12-25T12:36:10.035Z,38.50
2017-12-25T12:38:37.903Z,39.10
2017-12-25T12:41:06.486Z,38.50
2017-12-25T12:43:34.309Z,38.40
2017-12-25T12:46:02.099Z,38.70
2017-12-25T12:48:30.665Z,38.00
2017-12-25T12:50:58.381Z,37.80
2017-12-25T12:53:26.190Z,38.00
2017-12-25T12:55:53.914Z,36.40
2017-12-25T12:58:21.766Z,37.60
2017-12-25T13:00:49.593Z,37.50
2017-12-25T13:03:17.367Z,37.80
2017-12-25T13:05:45.240Z,38.00
2017-12-25T13:08:13.064Z,37.50
2017-12-25T13:10:40.921Z,37.40
2017-12-25T13:13:08.795Z,38.00
2017-12-25T13:15:36.650Z,38.00
2017-12-25T13:18:04.462Z,37.40
2017-12-25T13:20:32.360Z,37.00
2017-12-25T13:23:00.192Z,37.50
2017-12-25T13:25:27.986Z,37.70
2017-12-25T13:27:55.807Z,37.70
2017-12-25T13:30:23.579Z,36.80
2017-12-25T13:32:51.350Z,35.70
2017-12-25T13:35:19.228Z,36.50
2017-12-25T13:37:47.086Z,36.00
2017-12-25T13:40:15.224Z,33.80
2017-12-25T13:42:50.922Z,33.80
2017-12-25T13:45:18.840Z,35.80
2017-12-25T13:47:47.394Z,35.70
2017-12-25T13:50:15.257Z,35.60
2017-12-25T13:52:43.095Z,36.70
2017-12-25T13:55:11.054Z,37.20
2017-12-25T13:57:38.829Z,37.80
2017-12-25T14:00:06.661Z,37.10
2017-12-25T14:02:34.673Z,35.90
2017-12-25T14:05:03.087Z,37.00
2017-12-25T14:07:30.985Z,37.70
2017-12-25T14:09:58.854Z,38.00
2017-12-25T14:12:26.730Z,37.70
2017-12-25T14:14:54.580Z,37.60
2017-12-25T14:17:22.445Z,38.10
2017-12-25T14:19:50.234Z,37.50
2017-12-25T14:22:18.034Z,37.10
2017-12-25T14:24:45.905Z,37.00
2017-12-25T14:27:13.752Z,37.50
2017-12-25T14:29:42.432Z,37.60
2017-12-25T14:32:11.072Z,37.50
2017-12-25T14:34:39.178Z,37.40
2017-12-25T14:37:08.426Z,37.70
2017-12-25T14:39:37.184Z,37.70
2017-12-25T14:42:05.529Z,38.00
2017-12-25T14:44:33.901Z,37.90
2017-12-25T14:47:02.395Z,37.70
2017-12-25T14:49:32.475Z,37.00
2017-12-25T14:52:03.774Z,36.60
2017-12-25T14:55:08.814Z,36.50
2017-12-25T14:57:37.019Z,36.10
2017-12-25T15:00:05.321Z,36.20
2017-12-25T15:02:33.598Z,36.50
2017-12-25T15:05:01.845Z,36.20
2017-12-25T15:07:30.450Z,35.30
2017-12-25T15:09:58.295Z,35.30
2017-12-25T15:12:26.108Z,35.60
2017-12-25T15:14:54.012Z,35.90
2017-12-25T15:17:21.967Z,36.20
2017-12-25T15:19:49.864Z,35.90
2017-12-25T15:22:17.695Z,35.70
2017-12-25T15:24:48.373Z,35.60
2017-12-25T15:27:16.173Z,35.40
2017-12-25T15:29:49.955Z,35.20
2017-12-25T15:32:19.710Z,35.40
2017-12-25T15:34:56.116Z,35.30
2017-12-25T15:37:24.125Z,35.50
2017-12-25T15:39:52.895Z,35.50
2017-12-25T15:42:21.986Z,36.10
2017-12-25T15:44:49.868Z,36.70
2017-12-25T15:47:17.682Z,37.00
2017-12-25T15:49:45.593Z,37.30
2017-12-25T15:52:13.493Z,37.30
2017-12-25T15:54:42.142Z,36.60
2017-12-25T15:57:09.964Z,36.50
2017-12-25T15:59:37.823Z,36.30
2017-12-25T16:02:05.650Z,36.20
2017-12-25T16:04:33.444Z,37.20
2017-12-25T16:07:01.294Z,37.70
2017-12-25T16:09:29.082Z,37.80
2017-12-25T16:11:56.910Z,37.50
2017-12-25T16:14:24.769Z,37.40
2017-12-25T16:16:52.590Z,36.80
2017-12-25T16:19:21.182Z,37.50
2017-12-25T16:21:49.794Z,37.20
2017-12-25T16:24:17.604Z,37.20
2017-12-25T16:26:45.473Z,36.90
2017-12-25T16:29:13.267Z,37.30
2017-12-25T16:31:41.554Z,37.50
2017-12-25T16:34:09.375Z,37.10
2017-12-25T16:36:37.195Z,37.20
2017-12-25T16:39:05.285Z,37.20
2017-12-25T16:41:33.128Z,36.90
2017-12-25T16:44:01.735Z,37.10
2017-12-25T16:46:29.600Z,37.10
2017-12-25T16:48:57.504Z,37.50
2017-12-25T16:51:25.407Z,37.80
2017-12-25T16:53:53.340Z,37.40
2017-12-25T16:56:21.274Z,37.00
2017-12-25T16:58:49.810Z,37.30
2017-12-25T17:01:18.179Z,37.20
2017-12-25T17:03:46.037Z,37.50
2017-12-25T17:06:13.902Z,37.90
2017-12-25T17:08:41.686Z,37.60
2017-12-25T17:11:09.539Z,37.50
2017-12-25T17:13:37.371Z,37.20
2017-12-25T17:16:05.266Z,37.00
2017-12-25T17:18:33.232Z,37.40
2017-12-25T17:21:01.170Z,37.80
2017-12-25T17:23:31.042Z,37.80
2017-12-25T17:25:58.955Z,37.70
2017-12-25T17:28:26.877Z,37.50
2017-12-25T17:30:56.373Z,38.00
2017-12-25T17:33:26.813Z,38.50
2017-12-25T17:35:54.749Z,38.40
2017-12-25T17:41:31.040Z,39.50
2017-12-25T17:43:58.873Z,32.20
2017-12-25T17:46:27.418Z,36.00
2017-12-25T17:48:55.205Z,36.00
2017-12-25T17:51:23.019Z,37.10
2017-12-25T17:53:50.847Z,42.70
2017-12-25T17:56:19.578Z,37.20
2017-12-25T17:58:47.374Z,37.20
2017-12-25T18:01:15.197Z,38.30
2017-12-25T18:03:42.999Z,38.80
2017-12-25T18:06:11.142Z,39.50
2017-12-25T18:08:40.619Z,40.30
2017-12-25T18:11:09.268Z,41.00
2017-12-25T18:13:37.060Z,40.90
2017-12-25T18:16:05.889Z,41.50
2017-12-25T18:18:33.897Z,41.10
2017-12-25T18:21:01.723Z,41.50
2017-12-25T18:23:29.628Z,41.80
2017-12-25T18:25:57.704Z,50.70
2017-12-25T18:28:25.668Z,48.50
2017-12-25T18:30:53.973Z,45.50
2017-12-25T18:33:23.400Z,43.20
2017-12-25T18:35:52.239Z,42.70
2017-12-25T18:38:20.165Z,42.60
2017-12-25T18:40:48.303Z,42.00
2017-12-25T18:43:16.857Z,41.50
2017-12-25T18:45:46.996Z,41.50
2017-12-25T18:48:15.656Z,41.30
2017-12-25T18:50:43.533Z,41.10
2017-12-25T18:53:11.412Z,40.60
2017-12-25T18:55:39.175Z,40.70
2017-12-25T18:58:07.052Z,40.70
2017-12-25T19:00:35.714Z,42.10
2017-12-25T19:03:03.653Z,41.50
2017-12-25T19:05:34.311Z,41.70
2017-12-25T19:08:02.690Z,41.80
2017-12-25T19:10:30.463Z,42.00
2017-12-25T19:12:58.324Z,42.00
2017-12-25T19:15:26.231Z,42.70
2017-12-25T19:17:54.834Z,41.50
2017-12-25T19:20:22.663Z,41.50
2017-12-25T19:22:50.608Z,41.80
2017-12-25T19:25:18.401Z,41.40
2017-12-25T19:27:47.065Z,41.30
2017-12-25T19:30:14.931Z,41.20
2017-12-25T19:32:42.762Z,41.50
2017-12-25T19:35:10.608Z,41.80
2017-12-25T19:37:38.492Z,42.60
2017-12-25T19:40:06.326Z,42.40
2017-12-25T19:42:35.070Z,42.40
2017-12-25T19:45:03.806Z,41.80
2017-12-25T19:47:31.604Z,41.70
2017-12-25T19:49:59.419Z,41.20
2017-12-25T19:52:27.974Z,41.50
2017-12-25T19:54:55.807Z,41.40
2017-12-25T19:57:23.659Z,42.00
2017-12-25T19:59:51.616Z,42.20
2017-12-25T20:02:19.493Z,33.20
2017-12-25T20:04:47.275Z,35.80
2017-12-25T20:07:15.048Z,36.90
2017-12-25T20:09:42.875Z,44.70
2017-12-25T20:12:11.515Z,38.40
2017-12-25T20:14:39.452Z,38.40
2017-12-25T20:17:07.348Z,45.80
2017-12-25T20:19:36.241Z,50.20
2017-12-25T20:22:04.777Z,44.50
2017-12-25T20:24:33.111Z,45.20
2017-12-25T20:27:02.614Z,44.70
2017-12-25T20:29:31.270Z,44.20
2017-12-25T20:32:00.417Z,43.60
2017-12-25T20:34:29.074Z,39.30
2017-12-25T20:36:57.745Z,39.00
2017-12-25T20:39:26.201Z,34.40
2017-12-25T20:41:54.833Z,43.00
2017-12-25T20:44:23.477Z,43.80
2017-12-25T20:46:51.708Z,41.70
2017-12-25T20:49:20.386Z,42.30
2017-12-25T20:51:48.299Z,42.00
2017-12-25T20:54:16.212Z,41.90
2017-12-25T20:56:44.606Z,41.90
2017-12-25T20:59:13.681Z,41.80
2017-12-25T21:01:43.290Z,41.80
2017-12-25T21:04:11.868Z,41.70
2017-12-25T21:06:40.196Z,33.10
2017-12-25T21:09:09.696Z,42.70
2017-12-25T21:11:38.502Z,42.80
2017-12-25T21:14:06.310Z,42.10
2017-12-25T21:16:34.148Z,42.00
2017-12-25T21:19:02.043Z,41.80
2017-12-25T21:21:29.816Z,41.40
2017-12-25T21:23:57.642Z,39.30
2017-12-25T21:26:25.472Z,41.20
2017-12-25T21:28:53.353Z,39.00
2017-12-25T21:31:21.146Z,41.60
2017-12-25T21:33:49.076Z,41.90
2017-12-25T21:36:17.793Z,41.00
2017-12-25T21:38:45.592Z,41.00
